createdAt,value
2023-03-29T00:00:09.521Z,3.63
2023-03-29T00:02:38.705Z,3.20
2023-03-29T00:05:07.426Z,3.33
2023-03-29T00:07:35.407Z,2.87
2023-03-29T00:10:04.524Z,2.83
2023-03-29T00:12:33.223Z,3.13
2023-03-29T00:15:01.920Z,3.10
2023-03-29T00:17:30.299Z,2.97
2023-03-29T00:19:59.637Z,2.77
2023-03-29T00:22:27.432Z,2.50
2023-03-29T00:24:55.711Z,2.80
2023-03-29T00:27:23.796Z,3.00
2023-03-29T00:29:51.493Z,3.20
2023-03-29T00:32:19.207Z,3.23
2023-03-29T00:34:50.724Z,3.13
2023-03-29T00:37:19.962Z,3.50
2023-03-29T00:39:48.269Z,3.67
2023-03-29T00:42:18.619Z,3.33
2023-03-29T00:45:02.498Z,4.30
2023-03-29T00:47:36.056Z,3.70
2023-03-29T00:50:08.678Z,4.00
2023-03-29T00:52:39.788Z,3.90
2023-03-29T00:55:11.778Z,3.90
2023-03-29T00:57:41.441Z,4.40
2023-03-29T01:00:11.004Z,3.63
2023-03-29T01:02:40.804Z,4.00
2023-03-29T01:05:11.966Z,4.20
2023-03-29T01:07:48.168Z,4.27
2023-03-29T01:10:20.650Z,4.40
2023-03-29T01:12:52.719Z,3.93
2023-03-29T01:15:23.275Z,4.03
2023-03-29T01:17:53.677Z,4.13
2023-03-29T01:20:27.837Z,4.47
2023-03-29T01:23:08.322Z,4.37
2023-03-29T01:25:45.464Z,3.90
2023-03-29T01:28:18.237Z,4.40
2023-03-29T01:30:49.321Z,4.97
2023-03-29T01:33:21.599Z,5.00
2023-03-29T01:35:57.513Z,4.33
2023-03-29T01:38:29.070Z,4.67
2023-03-29T01:40:56.886Z,4.93
2023-03-29T01:43:32.339Z,5.03
2023-03-29T01:46:06.153Z,4.20
2023-03-29T01:48:41.686Z,5.23
2023-03-29T01:51:15.521Z,4.90
2023-03-29T01:53:46.728Z,4.70
2023-03-29T01:56:17.875Z,4.57
2023-03-29T01:58:51.201Z,5.10
2023-03-29T02:01:25.956Z,5.23
2023-03-29T02:03:56.808Z,4.57
2023-03-29T02:06:28.447Z,4.23
2023-03-29T02:08:56.814Z,5.10
2023-03-29T02:11:25.959Z,4.60
2023-03-29T02:13:55.060Z,4.80
2023-03-29T02:16:22.966Z,5.17
2023-03-29T02:18:53.201Z,5.33
2023-03-29T02:21:26.593Z,5.10
2023-03-29T02:23:56.774Z,6.00
2023-03-29T02:26:24.670Z,6.17
2023-03-29T02:28:53.371Z,5.97
2023-03-29T02:31:28.567Z,5.13
2023-03-29T02:34:02.267Z,5.83
2023-03-29T02:36:38.225Z,5.70
2023-03-29T02:39:08.121Z,6.03
2023-03-29T02:41:37.392Z,5.67
2023-03-29T02:44:07.766Z,4.80
2023-03-29T02:46:37.957Z,5.37
2023-03-29T02:49:06.682Z,5.80
2023-03-29T02:51:36.324Z,5.17
2023-03-29T02:54:08.233Z,6.37
2023-03-29T02:56:43.263Z,6.03
2023-03-29T02:59:12.189Z,6.87
2023-03-29T03:01:43.627Z,5.57
2023-03-29T03:04:12.351Z,5.47
2023-03-29T03:06:40.413Z,5.33
2023-03-29T03:09:09.925Z,5.57
2023-03-29T03:11:37.793Z,5.33
2023-03-29T03:14:06.235Z,5.23
2023-03-29T03:16:34.007Z,4.47
2023-03-29T03:19:03.229Z,5.23
2023-03-29T03:21:31.231Z,3.67
2023-03-29T03:23:59.243Z,3.87
2023-03-29T03:26:30.285Z,4.30
2023-03-29T03:28:58.795Z,4.10
2023-03-29T03:31:28.300Z,4.10
2023-03-29T03:33:56.656Z,4.47
2023-03-29T03:36:26.068Z,4.80
2023-03-29T03:38:54.186Z,4.90
2023-03-29T03:41:22.710Z,4.70
2023-03-29T03:43:50.722Z,4.43
2023-03-29T03:46:19.153Z,4.90
2023-03-29T03:48:47.998Z,4.27
2023-03-29T03:51:15.805Z,4.33
2023-03-29T03:53:44.854Z,4.27
2023-03-29T03:56:13.533Z,4.60
2023-03-29T03:58:41.618Z,3.80
2023-03-29T04:01:09.970Z,4.43
2023-03-29T04:03:39.212Z,4.80
2023-03-29T04:06:07.497Z,5.10
2023-03-29T04:08:35.219Z,4.40
2023-03-29T04:11:04.719Z,4.57
2023-03-29T04:13:32.536Z,4.30
2023-03-29T04:16:01.774Z,4.57
2023-03-29T04:18:29.897Z,4.53
2023-03-29T04:20:57.728Z,5.10
2023-03-29T04:23:25.510Z,5.17
2023-03-29T04:25:55.308Z,5.20
2023-03-29T04:28:24.365Z,5.07
2023-03-29T04:30:52.313Z,4.37
2023-03-29T04:33:20.105Z,4.83
2023-03-29T04:35:47.907Z,5.03
2023-03-29T04:38:16.768Z,4.67
2023-03-29T04:40:44.939Z,5.10
2023-03-29T04:43:12.768Z,5.03
2023-03-29T04:45:41.935Z,5.40
2023-03-29T04:48:10.158Z,4.90
2023-03-29T04:50:37.952Z,4.40
2023-03-29T04:53:05.985Z,5.17
2023-03-29T04:55:33.733Z,5.40
2023-03-29T04:58:02.568Z,5.20
2023-03-29T05:00:31.585Z,4.90
2023-03-29T05:03:00.750Z,5.70
2023-03-29T05:05:28.594Z,4.50
2023-03-29T05:07:56.316Z,5.20
2023-03-29T05:10:24.341Z,4.70
2023-03-29T05:12:54.046Z,4.97
2023-03-29T05:15:22.443Z,5.40
2023-03-29T05:17:50.428Z,4.70
2023-03-29T05:20:19.559Z,5.10
2023-03-29T05:22:48.703Z,4.53
2023-03-29T05:25:17.633Z,5.20
2023-03-29T05:27:45.822Z,5.60
2023-03-29T05:30:15.274Z,4.97
2023-03-29T05:32:43.133Z,4.97
2023-03-29T05:35:11.391Z,5.83
2023-03-29T05:37:40.491Z,5.40
2023-03-29T05:40:10.311Z,4.93
2023-03-29T05:42:38.776Z,4.80
2023-03-29T05:45:07.664Z,4.93
2023-03-29T05:47:36.081Z,4.97
2023-03-29T05:50:04.536Z,4.80
2023-03-29T05:52:32.287Z,4.90
2023-03-29T05:55:01.453Z,5.00
2023-03-29T05:57:29.305Z,4.60
2023-03-29T05:59:58.162Z,5.17
2023-03-29T06:02:26.468Z,5.17
2023-03-29T06:04:55.427Z,5.20
2023-03-29T06:07:23.495Z,4.80
2023-03-29T06:09:51.321Z,5.17
2023-03-29T06:12:21.870Z,6.47
2023-03-29T06:14:49.942Z,6.00
2023-03-29T06:17:17.706Z,5.13
2023-03-29T06:19:45.464Z,4.80
2023-03-29T06:22:14.818Z,4.70
2023-03-29T06:24:42.700Z,4.40
2023-03-29T06:27:10.482Z,4.60
2023-03-29T06:29:40.317Z,4.50
2023-03-29T06:32:08.267Z,4.50
2023-03-29T06:34:38.542Z,4.30
2023-03-29T06:37:06.847Z,4.33
2023-03-29T06:39:34.634Z,4.73
2023-03-29T06:42:12.971Z,4.60
2023-03-29T06:44:46.675Z,4.23
2023-03-29T06:47:14.562Z,4.27
2023-03-29T06:49:42.304Z,5.17
2023-03-29T06:52:10.120Z,4.70
2023-03-29T06:54:38.859Z,4.63
2023-03-29T06:57:07.812Z,5.10
2023-03-29T06:59:35.922Z,5.00
2023-03-29T07:02:05.066Z,4.57
2023-03-29T07:04:33.088Z,5.13
2023-03-29T07:07:03.494Z,5.37
2023-03-29T07:09:33.442Z,5.30
2023-03-29T07:12:01.521Z,5.07
2023-03-29T07:14:30.164Z,4.80
2023-03-29T07:16:59.345Z,4.73
2023-03-29T07:19:30.271Z,4.23
2023-03-29T07:21:58.685Z,4.77
2023-03-29T07:24:26.570Z,4.83
2023-03-29T07:27:03.236Z,4.70
2023-03-29T07:29:32.137Z,4.07
2023-03-29T07:32:00.270Z,4.70
2023-03-29T07:34:31.494Z,4.27
2023-03-29T07:36:59.259Z,4.00
2023-03-29T07:39:27.856Z,4.17
2023-03-29T07:41:58.156Z,4.37
2023-03-29T07:44:27.072Z,3.87
2023-03-29T07:46:55.088Z,4.23
2023-03-29T07:49:22.836Z,4.00
2023-03-29T07:51:52.002Z,4.07
2023-03-29T07:54:19.732Z,4.23
2023-03-29T07:56:48.142Z,4.67
2023-03-29T07:59:16.538Z,3.90
2023-03-29T08:01:44.713Z,3.77
2023-03-29T08:04:12.821Z,4.60
2023-03-29T08:06:40.707Z,3.10
2023-03-29T08:09:09.762Z,3.27
2023-03-29T08:11:39.738Z,2.70
2023-03-29T08:14:09.024Z,3.00
2023-03-29T08:16:36.967Z,3.17
2023-03-29T08:19:04.968Z,3.23
2023-03-29T08:21:32.716Z,2.80
2023-03-29T08:24:00.441Z,2.97
2023-03-29T08:26:29.512Z,2.47
2023-03-29T08:28:57.239Z,2.70
2023-03-29T08:31:25.050Z,2.93
2023-03-29T08:33:53.180Z,2.80
2023-03-29T08:36:21.148Z,2.93
2023-03-29T08:38:50.452Z,2.53
2023-03-29T08:41:30.042Z,3.40
2023-03-29T08:44:11.328Z,2.60
2023-03-29T08:46:45.352Z,2.30
2023-03-29T08:49:13.864Z,2.83
2023-03-29T08:51:46.588Z,2.50
2023-03-29T08:54:20.535Z,2.88
2023-03-29T08:56:51.327Z,3.47
2023-03-29T08:59:23.852Z,4.28
2023-03-29T09:01:54.818Z,3.28
2023-03-29T09:04:25.832Z,2.63
2023-03-29T09:06:54.215Z,2.58
2023-03-29T09:09:24.822Z,2.30
2023-03-29T09:12:06.633Z,2.30
2023-03-29T09:14:54.675Z,2.53
2023-03-29T09:17:33.978Z,2.13
2023-03-29T09:20:12.480Z,2.45
2023-03-29T09:22:46.668Z,2.28
2023-03-29T09:25:21.366Z,2.50
2023-03-29T09:27:54.928Z,2.30
2023-03-29T09:30:28.603Z,2.17
2023-03-29T09:33:01.173Z,2.42
2023-03-29T09:35:32.919Z,2.55
2023-03-29T09:38:01.387Z,2.45
2023-03-29T09:40:34.686Z,1.95
2023-03-29T09:43:05.127Z,2.50
2023-03-29T09:45:37.237Z,2.80
2023-03-29T09:48:11.146Z,2.58
2023-03-29T09:50:41.776Z,2.30
2023-03-29T09:53:11.075Z,2.80
2023-03-29T09:55:40.870Z,2.72
2023-03-29T09:58:15.787Z,2.72
2023-03-29T10:00:45.956Z,2.63
2023-03-29T10:03:20.444Z,3.03
2023-03-29T10:05:50.224Z,2.72
2023-03-29T10:08:22.385Z,4.80
2023-03-29T10:10:50.523Z,2.80
2023-03-29T10:13:22.941Z,2.88
2023-03-29T10:16:07.433Z,2.88
2023-03-29T10:18:40.702Z,3.00
2023-03-29T10:21:12.545Z,3.38
2023-03-29T10:23:40.289Z,3.25
2023-03-29T10:26:14.949Z,3.30
2023-03-29T10:28:42.731Z,3.88
2023-03-29T10:31:19.793Z,3.60
2023-03-29T10:33:53.175Z,3.85
2023-03-29T10:36:22.461Z,3.47
2023-03-29T10:38:51.707Z,3.40
2023-03-29T10:41:22.029Z,3.60
2023-03-29T10:43:51.683Z,3.20
2023-03-29T10:46:23.330Z,4.00
2023-03-29T10:48:52.740Z,3.70
2023-03-29T10:51:21.111Z,3.63
2023-03-29T10:53:49.045Z,3.70
2023-03-29T10:56:29.604Z,4.20
2023-03-29T10:59:14.968Z,3.50
2023-03-29T11:01:52.966Z,3.37
2023-03-29T11:04:34.590Z,3.60
2023-03-29T11:07:25.747Z,3.90
2023-03-29T11:10:08.048Z,3.80
2023-03-29T11:12:45.286Z,3.80
2023-03-29T11:15:32.374Z,3.70
2023-03-29T11:18:16.114Z,3.90
2023-03-29T11:20:51.504Z,3.80
2023-03-29T11:23:32.272Z,4.00
2023-03-29T11:26:11.527Z,4.40
2023-03-29T11:28:46.969Z,4.00
2023-03-29T11:31:24.488Z,4.00
2023-03-29T11:34:03.129Z,4.25
2023-03-29T11:36:39.880Z,4.10
2023-03-29T11:39:17.343Z,4.50
2023-03-29T11:41:49.299Z,4.30
2023-03-29T11:44:21.220Z,3.90
2023-03-29T11:46:55.521Z,4.03
2023-03-29T11:49:29.312Z,3.97
2023-03-29T11:52:04.160Z,3.80
2023-03-29T11:54:36.604Z,4.00
2023-03-29T11:57:12.761Z,4.17
2023-03-29T11:59:45.478Z,4.03
2023-03-29T12:02:22.622Z,4.20
2023-03-29T12:04:55.741Z,4.47
2023-03-29T12:07:30.364Z,4.13
2023-03-29T12:10:02.270Z,4.10
2023-03-29T12:12:41.329Z,4.07
2023-03-29T12:15:14.537Z,4.30
2023-03-29T12:17:47.752Z,3.90
2023-03-29T12:20:26.912Z,4.23
2023-03-29T12:22:55.744Z,5.37
2023-03-29T12:25:30.593Z,4.13
2023-03-29T12:28:13.366Z,4.20
2023-03-29T12:30:51.773Z,3.93
2023-03-29T12:33:42.020Z,4.10
2023-03-29T12:36:20.594Z,4.77
2023-03-29T12:38:51.655Z,4.53
2023-03-29T12:41:21.704Z,4.40
2023-03-29T12:43:51.036Z,5.10
2023-03-29T12:46:21.014Z,4.53
2023-03-29T12:48:51.941Z,4.00
2023-03-29T12:51:23.491Z,4.20
2023-03-29T12:53:53.296Z,4.40
2023-03-29T12:56:23.639Z,4.43
2023-03-29T12:58:56.052Z,4.57
2023-03-29T13:01:32.135Z,4.20
2023-03-29T13:04:18.364Z,4.03
2023-03-29T13:07:03.169Z,3.83
2023-03-29T13:09:35.457Z,3.73
2023-03-29T13:12:10.213Z,4.17
2023-03-29T13:14:42.764Z,3.50
2023-03-29T13:17:19.960Z,4.30
2023-03-29T13:19:53.001Z,4.97
2023-03-29T13:22:38.078Z,4.43
2023-03-29T13:25:20.275Z,4.20
2023-03-29T13:27:55.336Z,4.23
2023-03-29T13:30:31.784Z,4.50
2023-03-29T13:33:15.405Z,4.03
2023-03-29T13:35:52.058Z,3.97
2023-03-29T13:38:25.272Z,4.10
2023-03-29T13:41:02.479Z,4.30
2023-03-29T13:43:37.690Z,4.27
2023-03-29T13:46:23.539Z,4.07
2023-03-29T13:49:04.899Z,4.20
2023-03-29T13:51:40.418Z,4.50
2023-03-29T13:54:19.774Z,5.10
2023-03-29T13:56:57.847Z,4.63
2023-03-29T13:59:33.099Z,4.70
2023-03-29T14:02:03.704Z,4.67
2023-03-29T14:04:37.667Z,4.80
2023-03-29T14:07:10.553Z,5.00
2023-03-29T14:09:43.893Z,5.67
2023-03-29T14:12:14.644Z,4.70
2023-03-29T14:14:57.759Z,4.83
2023-03-29T14:17:26.676Z,4.90
2023-03-29T14:19:57.674Z,4.90
2023-03-29T14:22:25.726Z,5.10
2023-03-29T14:24:56.777Z,5.13
2023-03-29T14:27:24.622Z,5.33
2023-03-29T14:29:53.196Z,4.80
2023-03-29T14:32:29.865Z,5.10
2023-03-29T14:34:58.710Z,5.47
2023-03-29T14:37:28.616Z,5.33
2023-03-29T14:39:59.471Z,5.90
2023-03-29T14:42:29.280Z,5.03
2023-03-29T14:44:59.431Z,5.47
2023-03-29T14:47:30.231Z,5.20
2023-03-29T14:50:00.863Z,5.60
2023-03-29T14:52:30.072Z,5.30
2023-03-29T14:55:01.988Z,5.20
2023-03-29T14:57:34.810Z,4.97
2023-03-29T15:00:13.438Z,5.20
2023-03-29T15:02:50.280Z,5.30
2023-03-29T15:05:34.396Z,4.93
2023-03-29T15:08:03.115Z,5.00
2023-03-29T15:10:35.551Z,5.60
2023-03-29T15:13:04.677Z,6.03
2023-03-29T15:15:34.804Z,5.67
2023-03-29T15:18:03.938Z,5.27
2023-03-29T15:20:35.681Z,6.03
2023-03-29T15:23:08.583Z,5.17
2023-03-29T15:25:40.338Z,5.30
2023-03-29T15:28:23.275Z,5.30
2023-03-29T15:31:06.778Z,5.63
2023-03-29T15:33:37.756Z,5.87
2023-03-29T15:36:07.755Z,4.77
2023-03-29T15:38:43.888Z,5.10
2023-03-29T15:41:15.412Z,4.90
2023-03-29T15:43:43.952Z,5.53
2023-03-29T15:46:13.055Z,5.10
2023-03-29T15:48:40.962Z,4.77
2023-03-29T15:51:10.207Z,4.73
2023-03-29T15:53:37.981Z,4.77
2023-03-29T15:56:10.122Z,4.40
2023-03-29T15:58:39.808Z,5.37
2023-03-29T16:01:15.911Z,4.40
2023-03-29T16:03:47.481Z,4.37
2023-03-29T16:06:17.370Z,5.00
2023-03-29T16:08:46.101Z,5.03
2023-03-29T16:11:14.024Z,4.90
2023-03-29T16:13:43.178Z,4.40
2023-03-29T16:16:11.925Z,5.43
2023-03-29T16:18:39.749Z,4.90
2023-03-29T16:21:12.267Z,4.87
2023-03-29T16:23:40.692Z,4.40
2023-03-29T16:26:08.949Z,4.50
2023-03-29T16:28:37.707Z,4.70
2023-03-29T16:31:07.430Z,4.53
2023-03-29T16:33:35.232Z,5.00
2023-03-29T16:36:03.589Z,4.50
2023-03-29T16:38:31.555Z,5.83
2023-03-29T16:40:59.366Z,6.53
2023-03-29T16:43:27.249Z,4.67
2023-03-29T16:45:55.159Z,4.90
2023-03-29T16:48:24.670Z,5.17
2023-03-29T16:50:52.476Z,4.90
2023-03-29T16:53:21.459Z,4.60
2023-03-29T16:55:50.912Z,5.13
2023-03-29T16:58:18.883Z,5.13
2023-03-29T17:00:48.477Z,5.30
2023-03-29T17:03:17.169Z,5.13
2023-03-29T17:05:49.867Z,4.70
2023-03-29T17:08:18.238Z,5.10
2023-03-29T17:10:46.274Z,5.00
2023-03-29T17:13:14.312Z,5.20
2023-03-29T17:15:42.098Z,4.97
2023-03-29T17:18:10.413Z,4.60
2023-03-29T17:20:39.927Z,4.63
2023-03-29T17:23:09.756Z,5.03
2023-03-29T17:25:37.604Z,4.70
2023-03-29T17:28:05.694Z,5.07
2023-03-29T17:30:35.167Z,4.43
2023-03-29T17:33:03.324Z,4.53
2023-03-29T17:35:31.394Z,4.90
2023-03-29T17:38:00.434Z,5.10
2023-03-29T17:40:29.925Z,4.60
2023-03-29T17:42:57.783Z,4.63
2023-03-29T17:45:25.732Z,4.80
2023-03-29T17:47:53.617Z,4.87
2023-03-29T17:50:21.594Z,5.07
2023-03-29T17:52:49.519Z,4.60
2023-03-29T17:55:17.712Z,4.60
2023-03-29T17:57:46.871Z,4.87
2023-03-29T18:00:16.814Z,4.50
2023-03-29T18:02:44.952Z,4.37
2023-03-29T18:05:12.981Z,4.70
2023-03-29T18:07:40.776Z,5.23
2023-03-29T18:10:09.258Z,4.70
2023-03-29T18:12:37.825Z,4.73
2023-03-29T18:15:08.362Z,5.07
2023-03-29T18:17:36.747Z,5.30
2023-03-29T18:20:11.623Z,4.67
2023-03-29T18:22:41.475Z,4.73
2023-03-29T18:25:11.054Z,4.53
2023-03-29T18:27:39.718Z,4.93
2023-03-29T18:30:10.347Z,4.90
2023-03-29T18:32:38.173Z,4.77
2023-03-29T18:35:06.780Z,4.70
2023-03-29T18:37:34.719Z,5.53
2023-03-29T18:40:02.504Z,5.77
2023-03-29T18:42:30.746Z,5.43
2023-03-29T18:44:58.496Z,6.00
2023-03-29T18:47:27.673Z,6.03
2023-03-29T18:49:55.466Z,5.07
2023-03-29T18:52:23.358Z,5.10
2023-03-29T18:54:51.421Z,5.27
2023-03-29T18:57:19.450Z,5.00
2023-03-29T18:59:47.289Z,5.13
2023-03-29T19:02:15.676Z,4.93
2023-03-29T19:04:44.785Z,5.20
2023-03-29T19:07:12.617Z,5.20
2023-03-29T19:09:41.615Z,4.57
2023-03-29T19:12:09.661Z,4.87
2023-03-29T19:14:37.606Z,4.37
2023-03-29T19:17:05.420Z,4.83
2023-03-29T19:19:33.199Z,4.70
2023-03-29T19:22:02.328Z,4.90
2023-03-29T19:24:30.181Z,5.63
2023-03-29T19:26:58.295Z,6.17
2023-03-29T19:29:27.174Z,6.57
2023-03-29T19:31:56.910Z,7.87
2023-03-29T19:34:24.711Z,8.87
2023-03-29T19:36:53.505Z,9.07
2023-03-29T19:39:23.202Z,10.13
2023-03-29T19:41:50.976Z,9.30
2023-03-29T19:44:20.004Z,9.17
2023-03-29T19:46:47.808Z,9.07
2023-03-29T19:49:15.590Z,9.97
2023-03-29T19:51:43.981Z,14.50
2023-03-29T19:54:12.827Z,16.03
2023-03-29T19:56:44.228Z,11.50
2023-03-29T19:59:14.764Z,13.70
2023-03-29T20:01:50.636Z,11.40
2023-03-29T20:04:18.897Z,10.37
2023-03-29T20:06:46.920Z,9.43
2023-03-29T20:09:16.082Z,9.27
2023-03-29T20:11:46.622Z,8.57
2023-03-29T20:14:14.739Z,8.87
2023-03-29T20:16:43.487Z,9.07
2023-03-29T20:19:14.118Z,8.97
2023-03-29T20:21:42.027Z,9.43
2023-03-29T20:24:10.325Z,9.27
2023-03-29T20:26:38.460Z,8.50
2023-03-29T20:29:08.038Z,8.83
2023-03-29T20:31:35.820Z,8.00
2023-03-29T20:34:03.642Z,8.77
2023-03-29T20:36:31.983Z,7.90
2023-03-29T20:39:01.224Z,7.43
2023-03-29T20:41:29.117Z,7.83
2023-03-29T20:43:59.321Z,8.23
2023-03-29T20:46:33.365Z,7.53
2023-03-29T20:49:01.647Z,7.03
2023-03-29T20:51:31.953Z,6.87
2023-03-29T20:54:04.485Z,6.93
2023-03-29T20:56:34.327Z,6.53
2023-03-29T20:59:04.033Z,6.87
2023-03-29T21:01:35.052Z,6.57
2023-03-29T21:04:02.843Z,7.17
2023-03-29T21:06:30.611Z,6.27
2023-03-29T21:08:58.734Z,6.73
2023-03-29T21:11:26.721Z,6.73
2023-03-29T21:13:55.126Z,6.77
2023-03-29T21:16:23.143Z,6.27
2023-03-29T21:18:52.423Z,6.40
2023-03-29T21:21:22.588Z,6.83
2023-03-29T21:23:50.603Z,6.23
2023-03-29T21:26:18.609Z,5.87
2023-03-29T21:28:48.518Z,6.30
2023-03-29T21:31:16.447Z,5.63
2023-03-29T21:33:44.231Z,6.20
2023-03-29T21:36:13.370Z,5.97
2023-03-29T21:38:41.337Z,5.77
2023-03-29T21:41:11.965Z,6.20
2023-03-29T21:43:39.841Z,6.30
2023-03-29T21:46:08.199Z,6.13
2023-03-29T21:48:36.067Z,5.73
2023-03-29T21:51:04.415Z,5.90
2023-03-29T21:53:33.638Z,5.87
2023-03-29T21:56:01.721Z,5.90
2023-03-29T21:58:29.429Z,5.50
2023-03-29T22:00:57.399Z,5.93
2023-03-29T22:03:25.230Z,5.80
2023-03-29T22:06:00.360Z,5.77
2023-03-29T22:08:28.621Z,5.40
2023-03-29T22:10:58.350Z,5.27
2023-03-29T22:13:27.591Z,5.90
2023-03-29T22:15:58.544Z,5.50
2023-03-29T22:18:27.969Z,6.10
2023-03-29T22:20:55.837Z,5.67
2023-03-29T22:23:24.821Z,5.67
2023-03-29T22:25:52.631Z,5.70
2023-03-29T22:28:21.667Z,5.57
2023-03-29T22:30:49.400Z,6.10
2023-03-29T22:33:17.224Z,5.60
2023-03-29T22:35:45.064Z,5.63
2023-03-29T22:38:12.849Z,5.80
2023-03-29T22:40:41.495Z,5.80
2023-03-29T22:43:09.209Z,5.67
2023-03-29T22:45:38.309Z,5.60
2023-03-29T22:48:06.613Z,5.77
2023-03-29T22:50:34.698Z,5.57
2023-03-29T22:53:02.512Z,6.00
2023-03-29T22:55:30.549Z,5.73
2023-03-29T22:57:58.355Z,6.10
2023-03-29T23:00:26.379Z,6.83
2023-03-29T23:02:55.591Z,5.83
2023-03-29T23:05:23.706Z,6.30
2023-03-29T23:07:51.455Z,6.80
2023-03-29T23:10:19.601Z,6.17
2023-03-29T23:12:49.060Z,6.10
2023-03-29T23:15:17.099Z,6.03
2023-03-29T23:17:45.424Z,6.40
2023-03-29T23:20:14.642Z,6.00
2023-03-29T23:22:42.364Z,6.23
2023-03-29T23:25:10.470Z,6.27
2023-03-29T23:27:38.267Z,6.30
2023-03-29T23:30:08.837Z,6.40
2023-03-29T23:32:36.631Z,5.93
2023-03-29T23:35:04.991Z,6.00
2023-03-29T23:37:34.023Z,6.40
2023-03-29T23:40:01.771Z,6.27
2023-03-29T23:42:30.796Z,5.97
2023-03-29T23:44:58.525Z,5.87
2023-03-29T23:47:27.570Z,6.00
2023-03-29T23:49:55.331Z,6.37
2023-03-29T23:52:23.116Z,6.10
2023-03-29T23:54:52.417Z,6.10
2023-03-29T23:57:21.223Z,6.20
2023-03-29T23:59:52.744Z,6.00
